Time,TemperatureF,DewpointF,PressureIn,WindDirection,WindDirectionDegrees,WindSpeedMPH,WindSpeedGustMPH,Humidity,HourlyPrecipIn,Conditions,Clouds,dailyrainin,SolarRadiationWatts/m^2,SoftwareType,DateUTC
2013-03-04 00:00:00,17.7,8.9,30.13,SSE,163,0.0,0.0,68,0.00,CLR,,0.00,0.0,WeatherDisplay:10.37,2013-03-04 06:00:00,
2013-03-04 00:05:00,17.5,8.7,30.13,SSE,163,0.0,0.0,68,0.00,CLR,,0.00,0.0,WeatherDisplay:10.37,2013-03-04 06:05:00,
2013-03-04 00:10:00,17.5,8.7,30.13,SSE,163,0.0,0.0,68,0.00,CLR,,0.00,0.0,WeatherDisplay:10.37,2013-03-04 06:10:00,
2013-03-04 00:15:00,17.5,8.7,30.13,SSE,163,0.0,0.0,68,0.00,CLR,,0.00,0.0,WeatherDisplay:10.37,2013-03-04 06:15:00,
2013-03-04 00:20:00,17.5,8.7,30.13,SSE,163,0.0,0.0,68,0.00,CLR,,0.00,0.0,WeatherDisplay:10.37,2013-03-04 06:20:00,
2013-03-04 00:25:00,17.5,8.7,30.13,SSE,163,0.0,1.2,68,0.00,CLR,,0.00,0.0,WeatherDisplay:10.37,2013-03-04 06:25:00,
2013-03-04 00:30:00,17.3,8.5,30.14,SSE,163,0.0,0.0,68,0.00,CLR,,0.00,0.0,WeatherDisplay:10.37,2013-03-04 06:30:00,
2013-03-04 00:35:00,17.2,8.8,30.14,SSE,163,0.0,0.0,69,0.00,CLR,,0.00,0.0,WeatherDisplay:10.37,2013-03-04 06:35:00,
2013-03-04 00:40:00,17.2,8.8,30.14,SSE,163,0.0,0.0,69,0.00,CLR,,0.00,0.0,WeatherDisplay:10.37,2013-03-04 06:40:00,
2013-03-04 00:45:00,17.0,8.6,30.14,SSE,159,0.0,0.0,69,0.00,CLR,,0.00,0.0,WeatherDisplay:10.37,2013-03-04 06:45:00,
2013-03-04 00:50:00,16.9,8.5,30.14,SSE,159,0.0,0.0,69,0.00,CLR,,0.00,0.0,WeatherDisplay:10.37,2013-03-04 06:50:00,
2013-03-04 00:55:00,16.7,8.6,30.14,SSE,159,0.0,0.0,70,0.00,CLR,,0.00,0.0,WeatherDisplay:10.37,2013-03-04 06:55:00,
2013-03-04 01:00:00,16.9,8.8,30.15,SSE,159,0.0,0.0,70,0.00,CLR,,0.00,0.0,WeatherDisplay:10.37,2013-03-04 07:00:00,
2013-03-04 01:05:00,16.7,8.3,30.15,SSE,159,0.0,0.0,69,0.00,CLR,,0.00,0.0,WeatherDisplay:10.37,2013-03-04 07:05:00,
2013-03-04 01:10:00,16.9,8.5,30.15,SSE,159,0.0,0.0,69,0.00,CLR,,0.00,0.0,WeatherDisplay:10.37,2013-03-04 07:10:00,
2013-03-04 01:15:00,17.0,8.6,30.15,SSE,159,0.0,0.0,69,0.00,CLR,,0.00,0.0,WeatherDisplay:10.37,2013-03-04 07:15:00,
2013-03-04 01:20:00,17.2,8.8,30.15,SSE,159,0.0,0.0,69,0.00,CLR,,0.00,0.0,WeatherDisplay:10.37,2013-03-04 07:20:00,
2013-03-04 01:25:00,17.2,8.4,30.15,SSE,159,0.0,0.0,68,0.00,CLR,,0.00,0.0,WeatherDisplay:10.37,2013-03-04 07:25:00,
2013-03-04 01:30:00,17.3,8.5,30.16,SSE,159,0.0,0.0,68,0.00,CLR,,0.00,0.0,WeatherDisplay:10.37,2013-03-04 07:30:00,
2013-03-04 01:35:00,17.3,8.5,30.16,SSE,159,0.0,0.0,68,0.00,CLR,,0.00,0.0,WeatherDisplay:10.37,2013-03-04 07:35:00,
2013-03-04 01:40:00,17.3,8.5,30.16,SSE,159,0.0,0.0,68,0.00,CLR,,0.00,0.0,WeatherDisplay:10.37,2013-03-04 07:40:00,
2013-03-04 01:45:00,17.3,8.5,30.15,SSE,159,0.0,0.0,68,0.00,CLR,,0.00,0.0,WeatherDisplay:10.37,2013-03-04 07:45:00,
2013-03-04 01:50:00,17.3,8.5,30.15,SSE,159,0.0,0.0,68,0.00,CLR,,0.00,0.0,WeatherDisplay:10.37,2013-03-04 07:50:00,
2013-03-04 01:55:00,17.3,8.5,30.15,SSE,159,0.0,0.0,68,0.00,CLR,,0.00,0.0,WeatherDisplay:10.37,2013-03-04 07:55:00,
2013-03-04 02:00:00,17.2,8.4,30.15,SSE,159,0.0,0.0,68,0.00,CLR,,0.00,0.0,WeatherDisplay:10.37,2013-03-04 08:00:00,
2013-03-04 02:05:00,17.2,8.8,30.15,SSE,159,0.0,0.0,69,0.00,CLR,,0.00,0.0,WeatherDisplay:10.37,2013-03-04 08:05:00,
2013-03-04 02:10:00,17.2,8.8,30.15,SSE,159,0.0,0.0,69,0.00,CLR,,0.00,0.0,WeatherDisplay:10.37,2013-03-04 08:10:00,
2013-03-04 02:15:00,17.2,8.8,30.15,SSE,159,0.0,0.0,69,0.00,CLR,,0.00,0.0,WeatherDisplay:10.37,2013-03-04 08:15:00,
2013-03-04 02:20:00,17.2,8.8,30.15,SSE,159,0.0,0.0,69,0.00,CLR,,0.00,0.0,WeatherDisplay:10.37,2013-03-04 08:20:00,
2013-03-04 02:25:00,17.2,8.8,30.15,SSE,159,0.0,0.0,69,0.00,CLR,,0.00,0.0,WeatherDisplay:10.37,2013-03-04 08:25:00,
2013-03-04 02:30:00,17.2,8.8,30.15,SSE,159,0.0,0.0,69,0.00,CLR,,0.00,0.0,WeatherDisplay:10.37,2013-03-04 08:30:00,
2013-03-04 02:35:00,17.2,8.8,30.15,SSE,159,0.0,0.0,69,0.00,CLR,,0.00,0.0,WeatherDisplay:10.37,2013-03-04 08:35:00,
2013-03-04 02:40:00,17.0,8.6,30.15,SSE,159,0.0,0.0,69,0.00,CLR,,0.00,0.0,WeatherDisplay:10.37,2013-03-04 08:40:00,
2013-03-04 02:45:00,17.0,8.6,30.15,SSE,159,0.0,0.0,69,0.00,CLR,,0.00,0.0,WeatherDisplay:10.37,2013-03-04 08:45:00,
2013-03-04 02:50:00,17.0,8.9,30.15,SSE,159,0.0,0.0,70,0.00,CLR,,0.00,0.0,WeatherDisplay:10.37,2013-03-04 08:50:00,
2013-03-04 02:55:00,17.0,8.9,30.15,SSE,159,0.0,0.0,70,0.00,CLR,,0.00,0.0,WeatherDisplay:10.37,2013-03-04 08:55:00,
2013-03-04 03:00:00,16.9,8.8,30.14,SSE,159,0.0,0.0,70,0.00,CLR,,0.00,0.0,WeatherDisplay:10.37,2013-03-04 09:00:00,
2013-03-04 03:05:00,16.7,8.6,30.14,SSE,159,0.0,0.0,70,0.00,CLR,,0.00,0.0,WeatherDisplay:10.37,2013-03-04 09:05:00,
2013-03-04 03:10:00,16.5,8.1,30.14,SSE,159,0.0,0.0,69,0.00,CLR,,0.00,0.0,WeatherDisplay:10.37,2013-03-04 09:10:00,
2013-03-04 03:15:00,16.5,8.1,30.14,SSE,159,0.0,0.0,69,0.00,CLR,,0.00,0.0,WeatherDisplay:10.37,2013-03-04 09:15:00,
2013-03-04 03:20:00,16.4,7.7,30.14,SSE,159,0.0,0.0,68,0.00,CLR,,0.00,0.0,WeatherDisplay:10.37,2013-03-04 09:20:00,
2013-03-04 03:25:00,16.4,7.7,30.14,SSE,159,0.0,1.2,68,0.00,CLR,,0.00,0.0,WeatherDisplay:10.37,2013-03-04 09:25:00,
2013-03-04 03:30:00,16.4,7.3,30.13,SSE,159,0.3,1.2,67,0.00,CLR,,0.00,0.0,WeatherDisplay:10.37,2013-03-04 09:30:00,
2013-03-04 03:35:00,16.2,7.2,30.13,SSE,159,0.0,0.0,67,0.00,CLR,,0.00,0.0,WeatherDisplay:10.37,2013-03-04 09:35:00,
2013-03-04 03:40:00,16.1,7.1,30.13,SSE,159,0.1,1.2,67,0.00,CLR,,0.00,0.0,WeatherDisplay:10.37,2013-03-04 09:40:00,
2013-03-04 03:45:00,15.9,6.9,30.13,SSE,158,0.0,0.0,67,0.00,CLR,,0.00,0.0,WeatherDisplay:10.37,2013-03-04 09:45:00,
2013-03-04 03:50:00,15.7,6.7,30.13,SSE,158,0.3,2.4,67,0.00,CLR,,0.00,0.0,WeatherDisplay:10.37,2013-03-04 09:50:00,
2013-03-04 03:55:00,15.7,6.7,30.13,SSE,158,0.0,0.0,67,0.00,CLR,,0.00,0.0,WeatherDisplay:10.37,2013-03-04 09:55:00,
2013-03-04 04:00:00,15.6,6.6,30.13,ENE,71,0.9,2.4,67,0.00,CLR,,0.00,0.0,WeatherDisplay:10.37,2013-03-04 10:00:00,
2013-03-04 04:05:00,15.6,6.3,30.13,ENE,71,0.0,2.3,66,0.00,CLR,,0.00,0.0,WeatherDisplay:10.37,2013-03-04 10:05:00,
2013-03-04 04:10:00,15.6,6.3,30.13,ENE,71,0.6,2.4,66,0.00,CLR,,0.00,0.0,WeatherDisplay:10.37,2013-03-04 10:10:00,
2013-03-04 04:15:00,15.6,6.3,30.13,ENE,71,0.0,2.3,66,0.00,CLR,,0.00,0.0,WeatherDisplay:10.37,2013-03-04 10:15:00,
2013-03-04 04:20:00,15.6,6.3,30.13,ENE,71,0.0,0.0,66,0.00,CLR,,0.00,0.0,WeatherDisplay:10.37,2013-03-04 10:20:00,
2013-03-04 04:25:00,15.6,5.9,30.13,ENE,71,0.1,1.2,65,0.00,CLR,,0.00,0.0,WeatherDisplay:10.37,2013-03-04 10:25:00,
2013-03-04 04:30:00,15.7,6.0,30.13,ENE,71,0.2,1.2,65,0.00,CLR,,0.00,0.0,WeatherDisplay:10.37,2013-03-04 10:30:00,
2013-03-04 04:35:00,15.9,5.9,30.13,ENE,71,0.0,0.0,64,0.00,CLR,,0.00,0.0,WeatherDisplay:10.37,2013-03-04 10:35:00,
2013-03-04 04:40:00,16.1,5.7,30.13,ENE,71,0.1,1.2,63,0.00,CLR,,0.00,0.0,WeatherDisplay:10.37,2013-03-04 10:40:00,
2013-03-04 04:45:00,16.1,5.7,30.13,ESE,113,0.2,2.4,63,0.00,CLR,,0.00,0.0,WeatherDisplay:10.37,2013-03-04 10:45:00,
2013-03-04 04:50:00,16.2,5.5,30.13,East,98,2.1,6.0,62,0.00,CLR,,0.00,0.0,WeatherDisplay:10.37,2013-03-04 10:50:00,
2013-03-04 04:55:00,16.2,5.5,30.13,East,97,0.0,0.0,62,0.00,CLR,,0.00,0.0,WeatherDisplay:10.37,2013-03-04 10:55:00,
2013-03-04 05:00:00,16.2,5.1,30.13,East,96,0.7,4.8,61,0.00,CLR,,0.00,0.0,WeatherDisplay:10.37,2013-03-04 11:00:00,
2013-03-04 05:05:00,16.2,5.1,30.13,East,94,1.0,4.6,61,0.00,CLR,,0.00,0.0,WeatherDisplay:10.37,2013-03-04 11:05:00,
2013-03-04 05:10:00,16.2,5.1,30.13,East,94,0.0,0.0,61,0.00,CLR,,0.00,0.0,WeatherDisplay:10.37,2013-03-04 11:10:00,
2013-03-04 05:15:00,16.2,5.1,30.13,East,94,0.0,0.0,61,0.00,CLR,,0.00,0.0,WeatherDisplay:10.37,2013-03-04 11:15:00,
2013-03-04 05:20:00,16.2,5.1,30.13,East,86,0.0,0.0,61,0.00,CLR,,0.00,0.0,WeatherDisplay:10.37,2013-03-04 11:20:00,
2013-03-04 05:25:00,16.2,5.5,30.13,ESE,120,1.0,2.4,62,0.00,CLR,,0.00,0.0,WeatherDisplay:10.37,2013-03-04 11:25:00,
2013-03-04 05:30:00,16.2,5.1,30.13,East,94,0.0,2.3,61,0.00,CLR,,0.00,0.0,WeatherDisplay:10.37,2013-03-04 11:30:00,
2013-03-04 05:35:00,16.2,5.5,30.13,East,96,1.2,4.8,62,0.00,CLR,,0.00,0.0,WeatherDisplay:10.37,2013-03-04 11:35:00,
2013-03-04 05:40:00,16.2,5.5,30.13,East,91,0.3,2.4,62,0.00,CLR,,0.00,0.0,WeatherDisplay:10.37,2013-03-04 11:40:00,
2013-03-04 05:45:00,16.2,5.5,30.13,East,91,0.8,2.4,62,0.00,CLR,,0.00,0.0,WeatherDisplay:10.37,2013-03-04 11:45:00,
2013-03-04 05:50:00,16.1,5.4,30.13,East,91,0.0,2.3,62,0.00,CLR,,0.00,0.0,WeatherDisplay:10.37,2013-03-04 11:50:00,
2013-03-04 05:55:00,16.1,5.7,30.13,East,91,0.0,0.0,63,0.00,CLR,,0.00,0.0,WeatherDisplay:10.37,2013-03-04 11:55:00,
2013-03-04 06:00:00,16.1,5.7,30.13,East,91,0.0,0.0,63,0.00,CLR,,0.00,0.0,WeatherDisplay:10.37,2013-03-04 12:00:00,
2013-03-04 06:05:00,16.1,5.7,30.13,East,91,0.0,4.6,63,0.00,CLR,,0.00,0.0,WeatherDisplay:10.37,2013-03-04 12:05:00,
2013-03-04 06:10:00,16.1,6.1,30.13,East,91,0.0,0.0,64,0.00,CLR,,0.00,0.0,WeatherDisplay:10.37,2013-03-04 12:10:00,
2013-03-04 06:15:00,16.1,6.1,30.13,East,91,0.0,0.0,64,0.00,CLR,,0.00,0.0,WeatherDisplay:10.37,2013-03-04 12:15:00,
2013-03-04 06:20:00,16.1,6.1,30.13,East,87,0.7,3.6,64,0.00,CLR,,0.00,0.0,WeatherDisplay:10.37,2013-03-04 12:20:00,
2013-03-04 06:25:00,16.1,6.1,30.13,ENE,74,0.0,0.0,64,0.00,CLR,,0.00,0.0,WeatherDisplay:10.37,2013-03-04 12:25:00,
2013-03-04 06:30:00,16.1,6.4,30.13,NE,55,0.0,1.2,65,0.00,CLR,,0.00,0.0,WeatherDisplay:10.37,2013-03-04 12:30:00,
2013-03-04 06:35:00,16.1,6.4,30.13,ESE,104,0.0,0.0,65,0.00,CLR,,0.00,0.0,WeatherDisplay:10.37,2013-03-04 12:35:00,
2013-03-04 06:40:00,16.1,6.7,30.13,East,99,0.2,1.2,66,0.00,CLR,,0.00,7.0,WeatherDisplay:10.37,2013-03-04 12:40:00,
2013-03-04 06:45:00,16.2,6.8,30.14,East,100,0.0,0.0,66,0.00,CLR,,0.00,11.0,WeatherDisplay:10.37,2013-03-04 12:45:00,
2013-03-04 06:50:00,16.2,6.8,30.14,SE,134,0.0,0.0,66,0.00,CLR,,0.00,16.0,WeatherDisplay:10.37,2013-03-04 12:50:00,
2013-03-04 06:55:00,16.4,7.0,30.14,ESE,102,1.4,4.8,66,0.00,CLR,,0.00,21.0,WeatherDisplay:10.37,2013-03-04 12:55:00,
2013-03-04 07:00:00,16.4,7.3,30.14,ESE,105,0.0,4.6,67,0.00,CLR,,0.00,28.0,WeatherDisplay:10.37,2013-03-04 13:00:00,
2013-03-04 07:05:00,16.5,7.4,30.14,ESE,105,0.0,0.0,67,0.00,CLR,,0.00,35.0,WeatherDisplay:10.37,2013-03-04 13:05:00,
2013-03-04 07:10:00,16.5,7.4,30.14,South,180,1.4,4.6,67,0.00,CLR,,0.00,44.0,WeatherDisplay:10.37,2013-03-04 13:10:00,
2013-03-04 07:15:00,16.7,7.6,30.14,East,97,0.9,4.8,67,0.00,CLR,,0.00,49.0,WeatherDisplay:10.37,2013-03-04 13:15:00,
2013-03-04 07:20:00,16.7,7.6,30.14,East,92,0.0,6.9,67,0.00,CLR,,0.00,56.0,WeatherDisplay:10.37,2013-03-04 13:20:00,
2013-03-04 07:25:00,16.9,8.2,30.14,ENE,71,2.2,4.8,68,0.00,CLR,,0.00,62.0,WeatherDisplay:10.37,2013-03-04 13:25:00,
2013-03-04 07:30:00,17.0,8.3,30.14,ESE,103,0.0,2.3,68,0.00,CLR,,0.00,69.0,WeatherDisplay:10.37,2013-03-04 13:30:00,
2013-03-04 07:35:00,17.2,8.4,30.14,East,85,0.0,1.2,68,0.00,CLR,,0.00,83.0,WeatherDisplay:10.37,2013-03-04 13:35:00,
2013-03-04 07:40:00,17.3,8.9,30.14,East,79,0.1,3.5,69,0.00,CLR,,0.00,91.0,WeatherDisplay:10.37,2013-03-04 13:40:00,
2013-03-04 07:45:00,17.3,8.9,30.14,ENE,74,0.0,0.0,69,0.00,CLR,,0.00,102.0,WeatherDisplay:10.37,2013-03-04 13:45:00,
2013-03-04 07:50:00,17.5,9.1,30.14,East,92,0.0,1.2,69,0.00,CLR,,0.00,107.0,WeatherDisplay:10.37,2013-03-04 13:50:00,
2013-03-04 07:55:00,17.7,9.2,30.14,ESE,115,0.7,4.8,69,0.00,CLR,,0.00,118.0,WeatherDisplay:10.37,2013-03-04 13:55:00,
2013-03-04 08:00:00,18.0,9.5,30.14,ESE,111,0.3,2.4,69,0.00,CLR,,0.00,130.0,WeatherDisplay:10.37,2013-03-04 14:00:00,
2013-03-04 08:05:00,18.3,9.8,30.14,ESE,110,0.0,2.3,69,0.00,CLR,,0.00,141.0,WeatherDisplay:10.37,2013-03-04 14:05:00,
2013-03-04 08:10:00,18.4,9.9,30.14,NE,52,2.8,4.8,69,0.00,CLR,,0.00,155.0,WeatherDisplay:10.37,2013-03-04 14:10:00,
2013-03-04 08:15:00,18.4,9.9,30.14,ENE,69,3.1,6.0,69,0.00,CLR,,0.00,169.0,WeatherDisplay:10.37,2013-03-04 14:15:00,
2013-03-04 08:20:00,18.4,9.9,30.14,East,94,3.9,7.2,69,0.00,CLR,,0.00,176.0,WeatherDisplay:10.37,2013-03-04 14:20:00,
2013-03-04 08:25:00,18.6,10.1,30.14,ENE,63,5.3,8.4,69,0.00,CLR,,0.00,178.0,WeatherDisplay:10.37,2013-03-04 14:25:00,
2013-03-04 08:30:00,18.8,10.3,30.14,ENE,61,5.1,7.2,69,0.00,CLR,,0.00,183.0,WeatherDisplay:10.37,2013-03-04 14:30:00,
2013-03-04 08:35:00,19.1,10.3,30.14,ESE,103,3.0,9.2,68,0.00,CLR,,0.00,181.0,WeatherDisplay:10.37,2013-03-04 14:35:00,
2013-03-04 08:40:00,19.4,10.9,30.14,East,80,3.6,6.0,69,0.00,CLR,,0.00,185.0,WeatherDisplay:10.37,2013-03-04 14:40:00,
2013-03-04 08:45:00,19.5,10.6,30.13,East,87,2.5,6.0,68,0.00,CLR,,0.00,192.0,WeatherDisplay:10.37,2013-03-04 14:45:00,
2013-03-04 08:50:00,19.9,11.0,30.13,East,82,1.1,3.6,68,0.00,CLR,,0.00,199.0,WeatherDisplay:10.37,2013-03-04 14:50:00,
2013-03-04 08:55:00,20.2,11.3,30.13,East,83,1.5,8.1,68,0.00,CLR,,0.00,197.0,WeatherDisplay:10.37,2013-03-04 14:55:00,
2013-03-04 09:00:00,20.5,11.3,30.13,ENE,61,0.4,2.4,67,0.00,CLR,,0.00,202.0,WeatherDisplay:10.37,2013-03-04 15:00:00,
2013-03-04 09:05:00,20.5,11.3,30.13,ENE,71,0.7,6.0,67,0.00,CLR,,0.00,206.0,WeatherDisplay:10.37,2013-03-04 15:05:00,
2013-03-04 09:10:00,20.6,11.4,30.13,ENE,75,2.6,5.8,67,0.00,CLR,,0.00,209.0,WeatherDisplay:10.37,2013-03-04 15:10:00,
2013-03-04 09:15:00,20.8,11.6,30.13,East,91,1.6,5.8,67,0.00,CLR,,0.00,213.0,WeatherDisplay:10.37,2013-03-04 15:15:00,
2013-03-04 09:20:00,21.1,11.8,30.13,ENE,59,4.6,8.1,67,0.00,CLR,,0.00,221.0,WeatherDisplay:10.37,2013-03-04 15:20:00,
2013-03-04 09:25:00,21.4,12.1,30.13,ESE,111,0.0,1.2,67,0.00,CLR,,0.00,221.0,WeatherDisplay:10.37,2013-03-04 15:25:00,
2013-03-04 09:30:00,21.6,12.0,30.13,East,94,4.6,8.4,66,0.00,CLR,,0.00,209.0,WeatherDisplay:10.37,2013-03-04 15:30:00,
2013-03-04 09:35:00,21.6,12.0,30.13,ENE,69,3.1,6.0,66,0.00,CLR,,0.00,204.0,WeatherDisplay:10.37,2013-03-04 15:35:00,
2013-03-04 09:40:00,21.6,11.6,30.13,SE,130,6.0,7.2,65,0.00,CLR,,0.00,211.0,WeatherDisplay:10.37,2013-03-04 15:40:00,
2013-03-04 09:45:00,21.8,12.2,30.13,ESE,117,1.5,4.8,66,0.00,CLR,,0.00,214.0,WeatherDisplay:10.37,2013-03-04 15:45:00,
2013-03-04 09:50:00,22.4,12.8,30.13,SE,146,7.8,17.3,66,0.00,CLR,,0.00,218.0,WeatherDisplay:10.37,2013-03-04 15:50:00,
2013-03-04 09:55:00,22.7,12.7,30.13,SE,128,5.4,7.2,65,0.00,CLR,,0.00,225.0,WeatherDisplay:10.37,2013-03-04 15:55:00,
2013-03-04 10:00:00,22.9,12.9,30.13,ESE,123,7.8,10.8,65,0.00,CLR,,0.00,230.0,WeatherDisplay:10.37,2013-03-04 16:00:00,
2013-03-04 10:05:00,23.2,13.2,30.13,SE,142,5.4,9.6,65,0.00,CLR,,0.00,218.0,WeatherDisplay:10.37,2013-03-04 16:05:00,
2013-03-04 10:10:00,23.3,12.9,30.13,ESE,109,3.9,6.0,64,0.00,CLR,,0.00,207.0,WeatherDisplay:10.37,2013-03-04 16:10:00,
2013-03-04 10:15:00,23.3,12.9,30.13,ESE,109,9.0,13.2,64,0.00,CLR,,0.00,214.0,WeatherDisplay:10.37,2013-03-04 16:15:00,
2013-03-04 10:20:00,23.5,13.1,30.13,SSE,148,4.5,8.1,64,0.00,CLR,,0.00,253.0,WeatherDisplay:10.37,2013-03-04 16:20:00,
2013-03-04 10:25:00,23.5,12.7,30.13,SSE,155,8.1,15.0,63,0.00,CLR,,0.00,297.0,WeatherDisplay:10.37,2013-03-04 16:25:00,
2013-03-04 10:30:00,23.5,12.7,30.13,SE,146,7.0,10.8,63,0.00,CLR,,0.00,329.0,WeatherDisplay:10.37,2013-03-04 16:30:00,
2013-03-04 10:35:00,23.8,12.7,30.13,SE,142,4.9,7.2,62,0.00,CLR,,0.00,346.0,WeatherDisplay:10.37,2013-03-04 16:35:00,
2013-03-04 10:40:00,23.9,12.8,30.13,SE,128,6.3,13.2,62,0.00,CLR,,0.00,341.0,WeatherDisplay:10.37,2013-03-04 16:40:00,
2013-03-04 10:45:00,24.2,12.7,30.13,SE,133,3.6,8.1,61,0.00,CLR,,0.00,345.0,WeatherDisplay:10.37,2013-03-04 16:45:00,
2013-03-04 10:50:00,24.4,12.9,30.13,ENE,57,6.8,8.4,61,0.00,CLR,,0.00,380.0,WeatherDisplay:10.37,2013-03-04 16:50:00,
2013-03-04 10:55:00,24.5,13.0,30.13,East,85,5.1,8.4,61,0.00,CLR,,0.00,399.0,WeatherDisplay:10.37,2013-03-04 16:55:00,
2013-03-04 11:00:00,24.7,12.8,30.13,SSE,148,2.4,7.2,60,0.00,SCT,,0.00,404.0,WeatherDisplay:10.37,2013-03-04 17:00:00,
2013-03-04 11:05:00,25.0,12.7,30.13,East,83,3.3,8.1,59,0.00,SCT,,0.00,425.0,WeatherDisplay:10.37,2013-03-04 17:05:00,
2013-03-04 11:10:00,25.3,13.0,30.13,ENE,69,1.4,4.8,59,0.00,SCT,,0.00,432.0,WeatherDisplay:10.37,2013-03-04 17:10:00,
2013-03-04 11:15:00,25.4,12.7,30.13,NE,52,4.0,9.6,58,0.00,SCT,,0.00,394.0,WeatherDisplay:10.37,2013-03-04 17:15:00,
2013-03-04 11:20:00,25.4,13.1,30.13,ESE,111,3.8,10.8,59,0.00,SCT,,0.00,397.0,WeatherDisplay:10.37,2013-03-04 17:20:00,
2013-03-04 11:25:00,25.6,13.2,30.13,ESE,119,5.4,7.2,59,0.00,BKN,,0.00,387.0,WeatherDisplay:10.37,2013-03-04 17:25:00,
2013-03-04 11:30:00,25.6,13.2,30.13,SSE,150,7.4,16.1,59,0.00,BKN,,0.00,376.0,WeatherDisplay:10.37,2013-03-04 17:30:00,
2013-03-04 11:35:00,25.6,13.6,30.13,East,94,7.0,13.2,60,0.00,BKN,,0.00,343.0,WeatherDisplay:10.37,2013-03-04 17:35:00,
2013-03-04 11:40:00,25.7,13.7,30.13,SSE,157,6.3,8.4,60,0.00,BKN,,0.00,322.0,WeatherDisplay:10.37,2013-03-04 17:40:00,
2013-03-04 11:45:00,25.8,14.2,30.12,ENE,72,3.3,7.2,61,0.00,OVC,,0.00,322.0,WeatherDisplay:10.37,2013-03-04 17:45:00,
2013-03-04 11:50:00,26.3,14.7,30.12,SE,142,1.4,5.8,61,0.00,OVC,,0.00,322.0,WeatherDisplay:10.37,2013-03-04 17:50:00,
2013-03-04 11:55:00,26.3,14.7,30.12,East,90,6.9,9.6,61,0.00,OVC,,0.00,313.0,WeatherDisplay:10.37,2013-03-04 17:55:00,
2013-03-04 12:00:00,26.6,14.9,30.11,ENE,63,5.3,6.9,61,0.00,OVC,,0.00,285.0,WeatherDisplay:10.37,2013-03-04 18:00:00,
2013-03-04 12:05:00,26.6,14.9,30.11,East,100,2.3,6.0,61,0.00,BKN,,0.00,272.0,WeatherDisplay:10.37,2013-03-04 18:05:00,
2013-03-04 12:10:00,26.9,15.2,30.11,East,80,3.2,13.2,61,0.00,BKN,,0.00,265.0,WeatherDisplay:10.37,2013-03-04 18:10:00,
2013-03-04 12:15:00,27.0,15.7,30.11,East,82,2.5,5.8,62,0.00,BKN,,0.00,264.0,WeatherDisplay:10.37,2013-03-04 18:15:00,
2013-03-04 12:20:00,27.2,15.9,30.11,East,80,6.8,9.6,62,0.00,BKN,,0.00,250.0,WeatherDisplay:10.37,2013-03-04 18:20:00,
2013-03-04 12:25:00,27.2,15.9,30.11,SSE,153,6.3,8.4,62,0.00,SCT,,0.00,243.0,WeatherDisplay:10.37,2013-03-04 18:25:00,
2013-03-04 12:29:00,27.5,16.5,30.11,SSE,148,1.0,5.8,63,0.00,SCT,,0.00,243.0,WeatherDisplay:10.37,2013-03-04 18:29:00,
2013-03-04 12:30:00,27.5,16.5,30.11,ESE,121,5.0,8.4,63,0.00,SCT,,0.00,243.0,WeatherDisplay:10.37,2013-03-04 18:30:00,
2013-03-04 12:35:00,27.8,16.8,30.11,ESE,103,3.8,6.0,63,0.00,SCT,,0.00,258.0,WeatherDisplay:10.37,2013-03-04 18:35:00,
2013-03-04 12:40:00,28.1,17.1,30.11,SE,136,1.8,6.9,63,0.00,SCT,,0.00,264.0,WeatherDisplay:10.37,2013-03-04 18:40:00,
2013-03-04 12:45:00,28.4,17.4,30.10,ESE,107,6.7,9.6,63,0.00,BKN,,0.00,262.0,WeatherDisplay:10.37,2013-03-04 18:45:00,
2013-03-04 12:50:00,28.2,16.8,30.10,East,86,6.0,9.2,62,0.00,BKN,,0.00,267.0,WeatherDisplay:10.37,2013-03-04 18:50:00,
2013-03-04 12:55:00,28.4,17.0,30.10,ESE,117,3.7,15.6,62,0.00,BKN,,0.00,269.0,WeatherDisplay:10.37,2013-03-04 18:55:00,
2013-03-04 13:00:00,28.4,17.0,30.09,ENE,71,3.7,9.6,62,0.00,BKN,,0.00,283.0,WeatherDisplay:10.37,2013-03-04 19:00:00,
2013-03-04 13:05:00,28.7,16.9,30.09,East,88,4.7,8.4,61,0.00,BKN,,0.00,278.0,WeatherDisplay:10.37,2013-03-04 19:05:00,
2013-03-04 13:10:00,28.8,17.0,30.09,ESE,105,7.6,9.6,61,0.00,BKN,,0.00,304.0,WeatherDisplay:10.37,2013-03-04 19:10:00,
2013-03-04 13:15:00,29.0,17.2,30.09,ESE,113,0.5,2.4,61,0.00,BKN,,0.00,336.0,WeatherDisplay:10.37,2013-03-04 19:15:00,
2013-03-04 13:20:00,29.3,17.1,30.09,East,81,6.6,9.6,60,0.00,BKN,,0.00,309.0,WeatherDisplay:10.37,2013-03-04 19:20:00,
2013-03-04 13:25:00,29.4,17.6,30.09,East,95,4.1,6.0,61,0.00,BKN,,0.00,269.0,WeatherDisplay:10.37,2013-03-04 19:25:00,
2013-03-04 13:30:00,29.5,17.3,30.09,East,100,3.2,9.6,60,0.00,BKN,,0.00,251.0,WeatherDisplay:10.37,2013-03-04 19:30:00,
2013-03-04 13:35:00,29.4,18.0,30.09,SSE,159,2.8,6.0,62,0.00,BKN,,0.00,236.0,WeatherDisplay:10.37,2013-03-04 19:35:00,
2013-03-04 13:40:00,29.4,17.2,30.09,South,178,0.1,4.6,60,0.00,SCT,,0.00,225.0,WeatherDisplay:10.37,2013-03-04 19:40:00,
2013-03-04 13:45:00,29.4,16.4,30.08,ESE,115,7.4,10.8,58,0.00,SCT,,0.00,237.0,WeatherDisplay:10.37,2013-03-04 19:45:00,
2013-03-04 13:50:00,29.4,16.4,30.08,East,86,4.0,7.2,58,0.00,SCT,,0.00,260.0,WeatherDisplay:10.37,2013-03-04 19:50:00,
2013-03-04 13:55:00,29.5,16.5,30.08,East,96,4.2,10.4,58,0.00,SCT,,0.00,281.0,WeatherDisplay:10.37,2013-03-04 19:55:00,
2013-03-04 14:00:00,29.8,16.4,30.08,ESE,103,2.7,6.9,57,0.00,SCT,,0.00,294.0,WeatherDisplay:10.37,2013-03-04 20:00:00,
2013-03-04 14:05:00,30.0,16.6,30.08,East,86,3.8,7.2,57,0.00,SCT,,0.00,290.0,WeatherDisplay:10.37,2013-03-04 20:05:00,
2013-03-04 14:10:00,30.1,16.7,30.08,ESE,103,1.4,4.8,57,0.00,SCT,,0.00,279.0,WeatherDisplay:10.37,2013-03-04 20:10:00,
2013-03-04 14:15:00,30.3,16.9,30.08,East,101,5.2,8.4,57,0.00,SCT,,0.00,250.0,WeatherDisplay:10.37,2013-03-04 20:15:00,
2013-03-04 14:20:00,30.3,16.5,30.08,East,79,7.9,10.8,56,0.00,SCT,,0.00,229.0,WeatherDisplay:10.37,2013-03-04 20:20:00,
2013-03-04 14:25:00,30.1,16.7,30.08,ESE,121,3.3,9.6,57,0.00,BKN,,0.00,225.0,WeatherDisplay:10.37,2013-03-04 20:25:00,
2013-03-04 14:30:00,30.1,16.7,30.07,SE,126,6.4,16.1,57,0.00,BKN,,0.00,244.0,WeatherDisplay:10.37,2013-03-04 20:30:00,
2013-03-04 14:35:00,30.1,16.7,30.07,South,172,4.8,9.6,57,0.00,BKN,,0.00,246.0,WeatherDisplay:10.37,2013-03-04 20:35:00,
2013-03-04 14:40:00,30.1,16.7,30.07,SE,130,7.4,10.8,57,0.00,BKN,,0.00,243.0,WeatherDisplay:10.37,2013-03-04 20:40:00,
2013-03-04 14:45:00,30.3,17.3,30.06,ESE,106,4.6,8.4,58,0.00,OVC,,0.00,237.0,WeatherDisplay:10.37,2013-03-04 20:45:00,
2013-03-04 14:50:00,30.1,16.7,30.06,East,80,5.3,8.4,57,0.00,OVC,,0.00,279.0,WeatherDisplay:10.37,2013-03-04 20:50:00,
2013-03-04 14:55:00,30.3,17.3,30.06,ESE,112,2.9,10.4,58,0.00,OVC,,0.00,304.0,WeatherDisplay:10.37,2013-03-04 20:55:00,
2013-03-04 15:00:00,30.6,18.0,30.06,ENE,75,5.4,9.6,59,0.00,OVC,,0.00,313.0,WeatherDisplay:10.37,2013-03-04 21:00:00,
2013-03-04 15:05:00,30.4,18.2,30.06,ENE,78,9.2,14.4,60,0.00,OVC,,0.00,313.0,WeatherDisplay:10.37,2013-03-04 21:05:00,
2013-03-04 15:10:00,30.3,18.1,30.06,ENE,71,7.8,16.1,60,0.00,SCT,,0.00,327.0,WeatherDisplay:10.37,2013-03-04 21:10:00,
2013-03-04 15:15:00,30.0,17.8,30.06,ENE,78,11.0,15.0,60,0.00,OVC,,0.00,299.0,WeatherDisplay:10.37,2013-03-04 21:15:00,
2013-03-04 15:20:00,30.0,18.2,30.06,ENE,75,12.4,15.6,61,0.00,OVC,,0.00,229.0,WeatherDisplay:10.37,2013-03-04 21:20:00,
2013-03-04 15:25:00,29.8,18.4,30.06,ENE,57,13.2,18.0,62,0.00,OVC,,0.00,197.0,WeatherDisplay:10.37,2013-03-04 21:25:00,
2013-03-04 15:30:00,29.7,18.6,30.06,SE,127,6.0,13.2,63,0.00,OVC,,0.00,185.0,WeatherDisplay:10.37,2013-03-04 21:30:00,
2013-03-04 15:35:00,29.8,18.7,30.06,East,80,3.5,8.4,63,0.00,OVC,,0.00,188.0,WeatherDisplay:10.37,2013-03-04 21:35:00,
2013-03-04 15:40:00,29.8,18.7,30.06,ENE,68,4.4,12.7,63,0.00,OVC,,0.00,158.0,WeatherDisplay:10.37,2013-03-04 21:40:00,
2013-03-04 15:45:00,29.7,19.0,30.06,NE,54,3.6,8.1,64,0.00,OVC,,0.00,107.0,WeatherDisplay:10.37,2013-03-04 21:45:00,
2013-03-04 15:50:00,29.5,19.2,30.06,ENE,61,8.5,16.1,65,0.00,OVC,,0.00,118.0,WeatherDisplay:10.37,2013-03-04 21:50:00,
2013-03-04 15:55:00,29.5,19.5,30.06,East,92,5.5,8.4,66,0.00,OVC,,0.00,127.0,WeatherDisplay:10.37,2013-03-04 21:55:00,
2013-03-04 16:00:00,29.5,19.5,30.06,ENE,73,9.0,16.1,66,0.00,OVC,,0.00,116.0,WeatherDisplay:10.37,2013-03-04 22:00:00,
2013-03-04 16:05:00,29.4,19.8,30.06,ESE,117,6.8,10.8,67,0.00,OVC,,0.00,100.0,WeatherDisplay:10.37,2013-03-04 22:05:00,
2013-03-04 16:10:00,29.4,19.8,30.06,NE,52,7.6,10.8,67,0.00,OVC,,0.00,91.0,WeatherDisplay:10.37,2013-03-04 22:10:00,
2013-03-04 16:15:00,29.4,19.8,30.06,ENE,73,10.9,15.0,67,0.00,OVC,,0.00,79.0,WeatherDisplay:10.37,2013-03-04 22:15:00,
2013-03-04 16:20:00,29.4,20.1,30.06,East,93,1.2,7.2,68,0.00,OVC,,0.00,56.0,WeatherDisplay:10.37,2013-03-04 22:20:00,
2013-03-04 16:25:00,29.3,20.0,30.06,ENE,70,9.3,13.2,68,0.00,BKN,,0.00,49.0,WeatherDisplay:10.37,2013-03-04 22:25:00,
2013-03-04 16:30:00,29.3,20.4,30.06,East,87,5.9,10.4,69,0.00,BKN,,0.00,44.0,WeatherDisplay:10.37,2013-03-04 22:30:00,
2013-03-04 16:35:00,29.3,20.4,30.06,East,90,4.3,8.4,69,0.00,BKN,,0.00,39.0,WeatherDisplay:10.37,2013-03-04 22:35:00,
2013-03-04 16:40:00,29.3,20.4,30.06,East,83,4.9,10.8,69,0.00,BKN,,0.00,37.0,WeatherDisplay:10.37,2013-03-04 22:40:00,
2013-03-04 16:45:00,29.3,20.7,30.06,ESE,112,9.1,13.2,70,0.00,BKN,,0.00,35.0,WeatherDisplay:10.37,2013-03-04 22:45:00,
2013-03-04 16:50:00,29.3,20.7,30.06,East,100,3.0,9.2,70,0.00,BKN,,0.00,35.0,WeatherDisplay:10.37,2013-03-04 22:50:00,
2013-03-04 16:55:00,29.1,20.5,30.06,ESE,108,7.6,16.1,70,0.00,BKN,,0.00,39.0,WeatherDisplay:10.37,2013-03-04 22:55:00,
2013-03-04 17:00:00,29.1,20.9,30.06,SE,137,11.6,13.2,71,0.00,BKN,,0.00,39.0,WeatherDisplay:10.37,2013-03-04 23:00:00,
2013-03-04 17:05:00,29.1,20.9,30.06,SE,132,12.4,16.1,71,0.00,BKN,,0.00,37.0,WeatherDisplay:10.37,2013-03-04 23:05:00,
2013-03-04 17:10:00,29.1,20.9,30.06,East,83,5.3,8.4,71,0.00,BKN,,0.00,28.0,WeatherDisplay:10.37,2013-03-04 23:10:00,
2013-03-04 17:15:00,29.3,21.4,30.06,East,83,2.9,12.7,72,0.00,BKN,,0.00,21.0,WeatherDisplay:10.37,2013-03-04 23:15:00,
2013-03-04 17:20:00,29.3,21.4,30.06,ENE,61,8.8,12.0,72,0.00,BKN,,0.00,18.0,WeatherDisplay:10.37,2013-03-04 23:20:00,
2013-03-04 17:25:00,29.3,21.4,30.06,NE,52,4.2,8.4,72,0.00,OVC,,0.00,12.0,WeatherDisplay:10.37,2013-03-04 23:25:00,
2013-03-04 17:30:00,29.3,21.4,30.07,East,86,7.2,15.0,72,0.00,OVC,,0.00,11.0,WeatherDisplay:10.37,2013-03-04 23:30:00,
2013-03-04 17:35:00,29.3,21.4,30.07,NE,51,3.5,7.2,72,0.00,OVC,,0.00,11.0,WeatherDisplay:10.37,2013-03-04 23:35:00,
2013-03-04 17:40:00,29.3,21.7,30.07,ENE,61,6.0,9.6,73,0.00,OVC,,0.00,11.0,WeatherDisplay:10.37,2013-03-04 23:40:00,
2013-03-04 17:45:00,29.1,21.5,30.06,ENE,61,8.7,14.4,73,0.00,SCT,,0.00,5.0,WeatherDisplay:10.37,2013-03-04 23:45:00,
2013-03-04 17:50:00,29.1,21.5,30.06,East,81,10.0,19.6,73,0.00,SCT,,0.00,0.0,WeatherDisplay:10.37,2013-03-04 23:50:00,
2013-03-04 17:55:00,29.1,21.5,30.06,East,88,6.0,12.0,73,0.00,SCT,,0.00,0.0,WeatherDisplay:10.37,2013-03-04 23:55:00,
2013-03-04 18:00:00,29.0,21.4,30.06,ENE,65,2.5,8.4,73,0.00,SCT,,0.00,0.0,WeatherDisplay:10.37,2013-03-05 00:00:00,
2013-03-04 18:05:00,29.0,21.4,30.06,ENE,67,6.0,9.6,73,0.00,BKN,,0.00,0.0,WeatherDisplay:10.37,2013-03-05 00:05:00,
2013-03-04 18:10:00,29.0,21.7,30.06,East,101,3.3,9.6,74,0.00,BKN,,0.00,0.0,WeatherDisplay:10.37,2013-03-05 00:10:00,
2013-03-04 18:15:00,29.0,21.7,30.06,ENE,71,9.5,15.6,74,0.00,BKN,,0.00,0.0,WeatherDisplay:10.37,2013-03-05 00:15:00,
2013-03-04 18:20:00,29.0,21.4,30.06,ESE,106,4.8,8.4,73,0.00,BKN,,0.00,0.0,WeatherDisplay:10.37,2013-03-05 00:20:00,
2013-03-04 18:25:00,29.0,21.7,30.06,ENE,74,3.2,7.2,74,0.00,BKN,,0.00,0.0,WeatherDisplay:10.37,2013-03-05 00:25:00,
2013-03-04 18:30:00,28.8,21.6,30.07,East,94,4.8,7.2,74,0.00,BKN,,0.00,0.0,WeatherDisplay:10.37,2013-03-05 00:30:00,
2013-03-04 18:35:00,28.8,21.6,30.07,NE,55,0.0,5.8,74,0.00,BKN,,0.00,0.0,WeatherDisplay:10.37,2013-03-05 00:35:00,
2013-03-04 18:40:00,28.8,21.2,30.07,East,93,6.9,11.5,73,0.00,BKN,,0.00,0.0,WeatherDisplay:10.37,2013-03-05 00:40:00,
2013-03-04 18:45:00,28.8,21.2,30.08,ESE,109,7.6,13.2,73,0.00,OVC,,0.00,0.0,WeatherDisplay:10.37,2013-03-05 00:45:00,
2013-03-04 18:50:00,28.8,21.2,30.08,East,98,1.8,6.0,73,0.00,OVC,,0.00,0.0,WeatherDisplay:10.37,2013-03-05 00:50:00,
2013-03-04 18:55:00,28.7,20.8,30.08,East,86,9.0,16.1,72,0.00,OVC,,0.00,0.0,WeatherDisplay:10.37,2013-03-05 00:55:00,
2013-03-04 19:00:00,28.7,20.8,30.08,East,86,6.3,15.0,72,0.00,OVC,,0.00,0.0,WeatherDisplay:10.37,2013-03-05 01:00:00,
2013-03-04 19:05:00,28.7,20.8,30.08,East,96,6.9,13.2,72,0.00,OVC,,0.00,0.0,WeatherDisplay:10.37,2013-03-05 01:05:00,
2013-03-04 19:10:00,28.5,20.6,30.08,SE,137,7.3,13.2,72,0.00,OVC,,0.00,0.0,WeatherDisplay:10.37,2013-03-05 01:10:00,
2013-03-04 19:15:00,28.5,20.9,30.09,NE,52,7.6,12.0,73,0.00,OVC,,0.00,0.0,WeatherDisplay:10.37,2013-03-05 01:15:00,
2013-03-04 19:20:00,28.5,20.9,30.09,ESE,110,8.4,15.6,73,0.00,OVC,,0.00,0.0,WeatherDisplay:10.37,2013-03-05 01:20:00,
2013-03-04 19:25:00,28.4,20.8,30.09,East,88,5.6,15.0,73,0.00,BKN,,0.00,0.0,WeatherDisplay:10.37,2013-03-05 01:25:00,
2013-03-04 19:30:00,28.4,20.8,30.09,ESE,109,7.6,10.8,73,0.00,BKN,,0.00,0.0,WeatherDisplay:10.37,2013-03-05 01:30:00,
2013-03-04 19:35:00,28.4,21.2,30.09,ENE,64,1.2,6.9,74,0.00,BKN,,0.00,0.0,WeatherDisplay:10.37,2013-03-05 01:35:00,
2013-03-04 19:40:00,28.4,21.2,30.09,NE,51,6.7,9.6,74,0.00,OVC,,0.00,0.0,WeatherDisplay:10.37,2013-03-05 01:40:00,
2013-03-04 19:45:00,28.2,21.0,30.08,East,92,7.2,9.6,74,0.00,OVC,,0.00,0.0,WeatherDisplay:10.37,2013-03-05 01:45:00,
2013-03-04 19:50:00,28.2,21.0,30.08,ENE,76,5.3,7.2,74,0.00,OVC,,0.00,0.0,WeatherDisplay:10.37,2013-03-05 01:50:00,
2013-03-04 19:55:00,28.2,21.0,30.08,ESE,106,2.4,9.2,74,0.00,OVC,,0.00,0.0,WeatherDisplay:10.37,2013-03-05 01:55:00,
2013-03-04 20:00:00,28.2,21.0,30.09,East,101,7.6,8.4,74,0.00,OVC,,0.00,0.0,WeatherDisplay:10.37,2013-03-05 02:00:00,
2013-03-04 20:05:00,28.2,21.0,30.09,ENE,63,3.1,6.0,74,0.00,OVC,,0.00,0.0,WeatherDisplay:10.37,2013-03-05 02:05:00,
2013-03-04 20:10:00,28.2,21.0,30.09,NE,56,4.5,8.4,74,0.00,OVC,,0.00,0.0,WeatherDisplay:10.37,2013-03-05 02:10:00,
2013-03-04 20:15:00,28.1,20.9,30.09,East,101,3.4,15.0,74,0.00,OVC,,0.00,0.0,WeatherDisplay:10.37,2013-03-05 02:15:00,
2013-03-04 20:20:00,28.1,21.2,30.09,East,84,3.0,6.0,75,0.00,OVC,,0.00,0.0,WeatherDisplay:10.37,2013-03-05 02:20:00,
2013-03-04 20:25:00,28.1,21.2,30.09,ESE,119,0.9,4.8,75,0.00,OVC,,0.00,0.0,WeatherDisplay:10.37,2013-03-05 02:25:00,
2013-03-04 20:30:00,27.9,21.0,30.09,East,87,3.0,7.2,75,0.00,OVC,,0.00,0.0,WeatherDisplay:10.37,2013-03-05 02:30:00,
2013-03-04 20:35:00,27.9,21.3,30.09,ENE,76,1.8,5.8,76,0.00,OVC,,0.00,0.0,WeatherDisplay:10.37,2013-03-05 02:35:00,
2013-03-04 20:40:00,27.8,21.2,30.09,East,80,5.0,9.2,76,0.00,OVC,,0.00,0.0,WeatherDisplay:10.37,2013-03-05 02:40:00,
2013-03-04 20:45:00,27.8,21.2,30.09,ESE,105,4.4,9.6,76,0.00,OVC,,0.00,0.0,WeatherDisplay:10.37,2013-03-05 02:45:00,
2013-03-04 20:50:00,27.6,21.3,30.09,East,94,2.9,7.2,77,0.00,OVC,,0.00,0.0,WeatherDisplay:10.37,2013-03-05 02:50:00,
2013-03-04 20:55:00,27.6,21.3,30.09,ESE,111,4.1,7.2,77,0.00,OVC,,0.00,0.0,WeatherDisplay:10.37,2013-03-05 02:55:00,
2013-03-04 21:00:00,27.6,21.3,30.09,East,100,2.8,8.4,77,0.00,OVC,,0.00,0.0,WeatherDisplay:10.37,2013-03-05 03:00:00,
2013-03-04 21:05:00,27.6,21.3,30.09,East,96,2.9,8.1,77,0.00,BKN,,0.00,0.0,WeatherDisplay:10.37,2013-03-05 03:05:00,
2013-03-04 21:10:00,27.6,21.3,30.09,East,86,6.6,12.7,77,0.00,BKN,,0.00,0.0,WeatherDisplay:10.37,2013-03-05 03:10:00,
2013-03-04 21:15:00,27.6,21.3,30.09,East,91,1.3,4.6,77,0.00,BKN,,0.00,0.0,WeatherDisplay:10.37,2013-03-05 03:15:00,
2013-03-04 21:20:00,27.6,21.3,30.09,ENE,57,3.7,8.1,77,0.00,BKN,,0.00,0.0,WeatherDisplay:10.37,2013-03-05 03:20:00,
2013-03-04 21:25:00,27.5,21.2,30.09,ESE,119,4.3,9.2,77,0.00,OVC,,0.00,0.0,WeatherDisplay:10.37,2013-03-05 03:25:00,
2013-03-04 21:30:00,27.5,21.2,30.09,ESE,103,6.5,13.2,77,0.00,OVC,,0.00,0.0,WeatherDisplay:10.37,2013-03-05 03:30:00,
2013-03-04 21:35:00,27.3,21.0,30.09,ESE,102,8.7,15.0,77,0.00,OVC,,0.00,0.0,WeatherDisplay:10.37,2013-03-05 03:35:00,
2013-03-04 21:40:00,27.3,21.0,30.09,East,96,4.6,7.2,77,0.00,OVC,,0.00,0.0,WeatherDisplay:10.37,2013-03-05 03:40:00,
2013-03-04 21:45:00,27.3,21.0,30.09,ENE,58,2.5,8.4,77,0.00,OVC,,0.00,0.0,WeatherDisplay:10.37,2013-03-05 03:45:00,
2013-03-04 21:50:00,27.2,20.9,30.09,ESE,109,7.8,10.8,77,0.00,OVC,,0.00,0.0,WeatherDisplay:10.37,2013-03-05 03:50:00,
2013-03-04 21:55:00,27.2,20.9,30.09,East,88,5.9,13.2,77,0.00,OVC,,0.00,0.0,WeatherDisplay:10.37,2013-03-05 03:55:00,
2013-03-04 22:00:00,27.2,20.9,30.09,East,101,5.8,12.7,77,0.00,OVC,,0.00,0.0,WeatherDisplay:10.37,2013-03-05 04:00:00,
2013-03-04 22:05:00,27.2,20.9,30.09,ESE,105,3.5,12.0,77,0.00,OVC,,0.00,0.0,WeatherDisplay:10.37,2013-03-05 04:05:00,
2013-03-04 22:10:00,27.2,20.9,30.09,ENE,73,4.9,10.4,77,0.00,OVC,,0.00,0.0,WeatherDisplay:10.37,2013-03-05 04:10:00,
2013-03-04 22:15:00,27.2,20.9,30.09,East,81,3.6,6.0,77,0.00,OVC,,0.00,0.0,WeatherDisplay:10.37,2013-03-05 04:15:00,
2013-03-04 22:20:00,27.0,20.7,30.09,ENE,71,6.0,10.4,77,0.00,OVC,,0.00,0.0,WeatherDisplay:10.37,2013-03-05 04:20:00,
2013-03-04 22:25:00,27.0,21.1,30.09,ENE,66,2.7,8.4,78,0.00,OVC,,0.00,0.0,WeatherDisplay:10.37,2013-03-05 04:25:00,
2013-03-04 22:30:00,26.9,21.0,30.10,East,99,7.4,9.6,78,0.00,OVC,,0.00,0.0,WeatherDisplay:10.37,2013-03-05 04:30:00,
2013-03-04 22:35:00,26.9,21.0,30.10,ENE,73,6.7,8.4,78,0.00,OVC,,0.00,0.0,WeatherDisplay:10.37,2013-03-05 04:35:00,
2013-03-04 22:40:00,26.9,21.3,30.10,East,91,5.5,13.2,79,0.00,OVC,,0.00,0.0,WeatherDisplay:10.37,2013-03-05 04:40:00,
2013-03-04 22:45:00,26.7,21.1,30.10,East,86,3.4,7.2,79,0.00,OVC,,0.00,0.0,WeatherDisplay:10.37,2013-03-05 04:45:00,
2013-03-04 22:50:00,26.7,21.1,30.10,ESE,109,5.5,9.6,79,0.00,OVC,,0.00,0.0,WeatherDisplay:10.37,2013-03-05 04:50:00,
2013-03-04 22:55:00,26.7,21.1,30.10,ESE,108,6.1,13.2,79,0.00,OVC,,0.00,0.0,WeatherDisplay:10.37,2013-03-05 04:55:00,
2013-03-04 23:00:00,26.7,21.1,30.09,ENE,59,9.2,16.1,79,0.00,OVC,,0.00,0.0,WeatherDisplay:10.37,2013-03-05 05:00:00,
2013-03-04 23:05:00,26.6,21.0,30.09,ENE,77,5.9,12.0,79,0.00,OVC,,0.00,0.0,WeatherDisplay:10.37,2013-03-05 05:05:00,
2013-03-04 23:10:00,26.6,21.0,30.09,ESE,111,6.1,9.6,79,0.00,OVC,,0.00,0.0,WeatherDisplay:10.37,2013-03-05 05:10:00,
2013-03-04 23:15:00,26.6,21.0,30.10,East,89,1.5,3.6,79,0.00,OVC,,0.00,0.0,WeatherDisplay:10.37,2013-03-05 05:15:00,
2013-03-04 23:20:00,26.6,21.0,30.10,ENE,76,3.3,7.2,79,0.00,OVC,,0.00,0.0,WeatherDisplay:10.37,2013-03-05 05:20:00,
2013-03-04 23:25:00,26.6,21.0,30.10,East,85,3.6,7.2,79,0.00,OVC,,0.00,0.0,WeatherDisplay:10.37,2013-03-05 05:25:00,
2013-03-04 23:30:00,26.6,21.0,30.09,ENE,69,3.6,7.2,79,0.00,OVC,,0.00,0.0,WeatherDisplay:10.37,2013-03-05 05:30:00,
2013-03-04 23:35:00,26.4,20.8,30.09,East,82,5.2,12.7,79,0.00,OVC,,0.00,0.0,WeatherDisplay:10.37,2013-03-05 05:35:00,
2013-03-04 23:40:00,26.4,20.8,30.09,ENE,77,0.8,6.9,79,0.00,OVC,,0.00,0.0,WeatherDisplay:10.37,2013-03-05 05:40:00,
2013-03-04 23:45:00,26.4,20.8,30.09,East,88,4.3,6.0,79,0.00,OVC,,0.00,0.0,WeatherDisplay:10.37,2013-03-05 05:45:00,
2013-03-04 23:50:00,26.3,20.7,30.09,East,86,4.8,7.2,79,0.00,OVC,,0.00,0.0,WeatherDisplay:10.37,2013-03-05 05:50:00,
2013-03-04 23:55:00,26.3,20.7,30.09,ENE,71,3.9,6.0,79,0.00,OVC,,0.00,0.0,WeatherDisplay:10.37,2013-03-05 05:55:00,